createdAt,value
2023-03-29T00:02:04.127Z,3.38
2023-03-29T00:04:31.255Z,4.20
2023-03-29T00:07:04.440Z,4.18
2023-03-29T00:12:00.647Z,5.47
2023-03-29T00:14:28.813Z,2.35
2023-03-29T00:16:55.590Z,5.70
2023-03-29T00:19:22.284Z,3.78
2023-03-29T00:21:48.982Z,5.57
2023-03-29T00:24:15.736Z,4.28
2023-03-29T00:26:42.492Z,5.50
2023-03-29T00:29:09.275Z,4.10
2023-03-29T00:31:36.055Z,6.13
2023-03-29T00:34:03.202Z,5.60
2023-03-29T00:36:29.914Z,4.30
2023-03-29T00:38:56.614Z,4.90
2023-03-29T00:41:24.324Z,6.45
2023-03-29T00:44:02.355Z,4.80
2023-03-29T00:46:30.489Z,4.22
2023-03-29T00:49:04.481Z,16.50
2023-03-29T00:51:34.267Z,7.15
2023-03-29T00:54:02.322Z,5.68
2023-03-29T00:56:37.478Z,4.53
2023-03-29T00:59:07.141Z,5.97
2023-03-29T01:01:45.172Z,6.97
2023-03-29T01:04:18.638Z,6.20
2023-03-29T01:06:58.369Z,6.50
2023-03-29T01:09:27.105Z,8.05
2023-03-29T01:11:56.773Z,7.75
2023-03-29T01:14:58.591Z,9.10
2023-03-29T01:17:25.731Z,6.38
2023-03-29T01:19:58.300Z,5.28
2023-03-29T01:22:45.924Z,8.05
2023-03-29T01:25:41.831Z,7.22
2023-03-29T01:28:10.834Z,4.47
2023-03-29T01:30:42.459Z,4.18
2023-03-29T01:33:21.338Z,4.88
2023-03-29T01:35:53.306Z,6.88
2023-03-29T01:38:30.493Z,5.75
2023-03-29T01:40:57.185Z,6.45
2023-03-29T01:43:26.469Z,4.18
2023-03-29T01:46:00.095Z,3.95
2023-03-29T01:48:29.528Z,7.30
2023-03-29T01:51:11.312Z,6.57
2023-03-29T01:53:39.539Z,6.47
2023-03-29T01:56:12.362Z,6.90
2023-03-29T01:58:43.286Z,6.65
2023-03-29T02:01:11.169Z,4.57
2023-03-29T02:03:42.138Z,9.10
2023-03-29T02:06:13.275Z,4.35
2023-03-29T02:08:41.337Z,4.00
2023-03-29T02:11:08.550Z,5.57
2023-03-29T02:13:35.815Z,7.65
2023-03-29T02:16:12.040Z,7.03
2023-03-29T02:18:40.356Z,5.75
2023-03-29T02:21:16.318Z,8.20
2023-03-29T02:23:46.643Z,7.85
2023-03-29T02:26:14.464Z,7.90
2023-03-29T02:28:42.126Z,11.40
2023-03-29T02:31:21.197Z,10.77
2023-03-29T02:34:32.822Z,8.60
2023-03-29T02:37:10.593Z,11.68
2023-03-29T02:39:38.308Z,13.68
2023-03-29T02:42:06.147Z,12.15
2023-03-29T02:44:36.499Z,11.95
2023-03-29T02:47:07.917Z,15.38
2023-03-29T02:49:34.694Z,10.52
2023-03-29T02:52:10.538Z,9.32
2023-03-29T02:54:42.939Z,9.70
2023-03-29T02:57:10.454Z,9.87
2023-03-29T02:59:38.628Z,8.13
2023-03-29T03:02:05.518Z,10.38
2023-03-29T03:04:35.018Z,11.43
2023-03-29T03:07:02.620Z,9.13
2023-03-29T03:09:29.605Z,10.15
2023-03-29T03:11:56.791Z,8.65
2023-03-29T03:14:25.241Z,14.00
2023-03-29T03:16:52.745Z,14.43
2023-03-29T03:19:19.860Z,14.25
2023-03-29T03:21:47.060Z,11.13
2023-03-29T03:24:15.537Z,8.95
2023-03-29T03:26:42.291Z,9.32
2023-03-29T03:29:09.710Z,9.88
2023-03-29T03:32:02.114Z,8.20
2023-03-29T03:34:55.221Z,11.40
2023-03-29T03:37:24.863Z,18.55
2023-03-29T03:39:51.967Z,8.25
2023-03-29T03:42:18.766Z,8.18
2023-03-29T03:44:46.279Z,14.20
2023-03-29T03:47:39.524Z,11.00
2023-03-29T03:50:41.890Z,9.70
2023-03-29T03:53:09.275Z,14.38
2023-03-29T03:55:56.041Z,9.25
2023-03-29T03:58:27.064Z,7.93
2023-03-29T04:00:54.855Z,13.35
2023-03-29T04:03:35.940Z,12.30
2023-03-29T04:06:04.145Z,9.15
2023-03-29T04:08:48.116Z,10.18
2023-03-29T04:11:37.533Z,14.65
2023-03-29T04:14:05.489Z,9.50
2023-03-29T04:16:52.863Z,13.48
2023-03-29T04:19:39.856Z,11.10
2023-03-29T04:22:06.606Z,13.82
2023-03-29T04:24:34.935Z,12.75
2023-03-29T04:27:24.468Z,11.57
2023-03-29T04:29:51.637Z,13.70
2023-03-29T04:32:30.477Z,9.77
2023-03-29T04:35:04.904Z,9.52
2023-03-29T04:37:32.466Z,8.88
2023-03-29T04:40:04.413Z,8.55
2023-03-29T04:42:47.159Z,11.05
2023-03-29T04:45:14.603Z,12.93
2023-03-29T04:48:01.956Z,9.63
2023-03-29T04:50:29.647Z,10.30
2023-03-29T04:52:57.045Z,9.25
2023-03-29T04:55:24.151Z,9.82
2023-03-29T04:58:12.953Z,10.98
2023-03-29T05:00:42.940Z,13.88
2023-03-29T05:03:13.512Z,8.82
2023-03-29T05:06:08.701Z,12.48
2023-03-29T05:08:39.135Z,13.43
2023-03-29T05:11:24.420Z,9.57
2023-03-29T05:13:51.221Z,11.70
2023-03-29T05:16:18.594Z,11.15
2023-03-29T05:18:45.388Z,10.80
2023-03-29T05:21:12.189Z,13.60
2023-03-29T05:23:42.193Z,9.05
2023-03-29T05:26:15.405Z,15.73
2023-03-29T05:28:47.045Z,14.20
2023-03-29T05:31:16.673Z,6.57
2023-03-29T05:33:45.122Z,10.60
2023-03-29T05:36:14.156Z,15.40
2023-03-29T05:38:46.802Z,11.60
2023-03-29T05:41:15.918Z,12.15
2023-03-29T05:43:45.763Z,12.30
2023-03-29T05:46:13.374Z,15.30
2023-03-29T05:48:47.392Z,10.10
2023-03-29T05:51:15.074Z,9.98
2023-03-29T05:53:42.127Z,16.42
2023-03-29T05:56:10.766Z,10.75
2023-03-29T05:58:39.242Z,10.27
2023-03-29T06:01:11.789Z,11.00
2023-03-29T06:03:57.340Z,13.55
2023-03-29T06:06:29.853Z,12.70
2023-03-29T06:08:59.041Z,17.27
2023-03-29T06:11:39.229Z,16.55
2023-03-29T06:14:27.207Z,11.20
2023-03-29T06:17:04.353Z,16.38
2023-03-29T06:19:31.753Z,11.32
2023-03-29T06:21:58.489Z,13.02
2023-03-29T06:24:28.414Z,14.20
2023-03-29T06:27:03.743Z,11.00
2023-03-29T06:29:31.109Z,13.38
2023-03-29T06:31:58.129Z,10.93
2023-03-29T06:34:54.424Z,13.90
2023-03-29T06:37:33.856Z,17.00
2023-03-29T06:40:21.180Z,11.38
2023-03-29T06:42:48.459Z,11.93
2023-03-29T06:45:36.251Z,15.32
2023-03-29T06:48:12.410Z,13.05
2023-03-29T06:50:47.629Z,17.27
2023-03-29T06:53:15.802Z,12.45
2023-03-29T06:55:45.679Z,12.20
2023-03-29T06:58:26.273Z,15.05
2023-03-29T07:00:53.933Z,14.27
2023-03-29T07:03:29.990Z,17.63
2023-03-29T07:06:03.881Z,15.40
2023-03-29T07:08:32.762Z,13.88
2023-03-29T07:11:03.735Z,12.93
2023-03-29T07:13:50.964Z,16.35
2023-03-29T07:16:22.253Z,15.52
2023-03-29T07:18:54.307Z,13.65
2023-03-29T07:21:47.395Z,16.48
2023-03-29T07:24:14.903Z,15.80
2023-03-29T07:26:52.258Z,19.70
2023-03-29T07:29:23.359Z,15.13
2023-03-29T07:31:50.463Z,12.57
2023-03-29T07:34:52.688Z,18.95
2023-03-29T07:37:34.132Z,20.00
2023-03-29T07:40:03.414Z,18.13
2023-03-29T07:42:42.267Z,21.70
2023-03-29T07:45:13.711Z,19.13
2023-03-29T07:47:56.030Z,21.88
2023-03-29T07:50:23.266Z,16.10
2023-03-29T07:52:53.549Z,17.63
2023-03-29T07:55:20.528Z,25.15
2023-03-29T07:57:57.843Z,19.98
2023-03-29T08:00:25.060Z,18.75
2023-03-29T08:03:14.829Z,16.50
2023-03-29T08:05:43.109Z,19.20
2023-03-29T08:08:11.747Z,23.33
2023-03-29T08:10:54.857Z,24.40
2023-03-29T08:13:30.761Z,23.30
2023-03-29T08:16:16.215Z,25.45
2023-03-29T08:18:51.029Z,21.90
2023-03-29T08:21:19.487Z,21.27
2023-03-29T08:23:49.146Z,23.98
2023-03-29T08:26:20.592Z,24.17
2023-03-29T08:28:49.284Z,20.33
2023-03-29T08:31:18.028Z,21.17
2023-03-29T08:33:45.553Z,20.65
2023-03-29T08:36:45.023Z,18.83
2023-03-29T08:39:21.218Z,21.58
2023-03-29T08:42:02.398Z,23.52
2023-03-29T08:44:57.458Z,20.98
2023-03-29T08:47:27.119Z,25.50
2023-03-29T08:49:55.269Z,22.25
2023-03-29T08:52:31.467Z,17.90
2023-03-29T08:55:03.043Z,17.77
2023-03-29T08:58:12.670Z,21.52
2023-03-29T09:00:44.255Z,18.40
2023-03-29T09:03:22.140Z,30.15
2023-03-29T09:05:54.690Z,21.67
2023-03-29T09:08:25.564Z,22.13
2023-03-29T09:11:00.230Z,19.02
2023-03-29T09:13:51.119Z,21.67
2023-03-29T09:16:43.293Z,20.02
2023-03-29T09:19:26.095Z,21.77
2023-03-29T09:24:57.897Z,25.83
2023-03-29T09:27:34.912Z,15.88
2023-03-29T09:30:27.509Z,16.15
2023-03-29T09:33:12.841Z,19.08
2023-03-29T09:35:56.355Z,19.77
2023-03-29T09:38:23.484Z,24.40
2023-03-29T09:40:53.921Z,20.48
2023-03-29T09:43:31.332Z,24.77
2023-03-29T09:46:06.546Z,42.50
2023-03-29T09:48:37.790Z,19.10
2023-03-29T09:51:07.611Z,15.30
2023-03-29T09:53:36.699Z,23.05
2023-03-29T09:56:16.860Z,20.85
2023-03-29T09:58:49.730Z,32.05
2023-03-29T10:01:19.023Z,23.00
2023-03-29T10:03:52.470Z,22.20
2023-03-29T10:06:24.333Z,24.52
2023-03-29T10:08:59.321Z,26.52
2023-03-29T10:14:16.785Z,24.23
2023-03-29T10:16:46.242Z,21.63
2023-03-29T10:19:19.223Z,20.42
2023-03-29T10:21:49.084Z,21.23
2023-03-29T10:24:20.569Z,19.73
2023-03-29T10:26:47.946Z,17.92
2023-03-29T10:29:14.804Z,18.25
2023-03-29T10:31:42.470Z,22.13
2023-03-29T10:34:13.040Z,19.88
2023-03-29T10:36:44.903Z,19.55
2023-03-29T10:39:15.561Z,19.60
2023-03-29T10:41:42.676Z,22.38
2023-03-29T10:44:32.780Z,19.80
2023-03-29T10:47:17.584Z,18.55
2023-03-29T10:50:07.708Z,19.30
2023-03-29T10:52:34.588Z,19.38
2023-03-29T10:55:01.673Z,21.35
2023-03-29T10:57:47.298Z,16.80
2023-03-29T11:00:21.797Z,19.27
2023-03-29T11:03:15.193Z,11.70
2023-03-29T11:05:54.336Z,14.90
2023-03-29T11:08:49.169Z,28.10
2023-03-29T11:11:56.183Z,12.40
2023-03-29T11:14:31.511Z,12.27
2023-03-29T11:17:19.681Z,23.05
2023-03-29T11:20:17.491Z,10.15
2023-03-29T11:22:53.280Z,13.13
2023-03-29T11:25:29.894Z,14.07
2023-03-29T11:28:21.894Z,13.02
2023-03-29T11:30:57.212Z,11.68
2023-03-29T11:33:34.484Z,13.40
2023-03-29T11:36:16.844Z,13.90
2023-03-29T11:39:11.396Z,13.30
2023-03-29T11:41:40.611Z,12.40
2023-03-29T11:44:22.526Z,14.63
2023-03-29T11:46:59.849Z,12.73
2023-03-29T11:49:44.489Z,15.80
2023-03-29T11:52:18.099Z,16.17
2023-03-29T11:55:04.922Z,11.30
2023-03-29T11:58:26.870Z,9.18
2023-03-29T12:01:11.654Z,10.52
2023-03-29T12:03:50.580Z,10.50
2023-03-29T12:06:33.352Z,15.63
2023-03-29T12:09:26.255Z,15.48
2023-03-29T12:12:10.799Z,11.35
2023-03-29T12:14:58.830Z,12.07
2023-03-29T12:17:33.345Z,8.85
2023-03-29T12:21:03.963Z,10.23
2023-03-29T12:23:38.268Z,13.52
2023-03-29T12:26:37.287Z,17.70
2023-03-29T12:29:37.747Z,12.18
2023-03-29T12:32:24.749Z,13.48
2023-03-29T12:35:31.006Z,7.45
2023-03-29T12:38:19.924Z,16.23
2023-03-29T12:41:25.466Z,11.05
2023-03-29T12:44:10.754Z,11.13
2023-03-29T12:47:08.795Z,14.57
2023-03-29T12:50:26.442Z,10.75
2023-03-29T12:53:06.535Z,15.65
2023-03-29T12:55:49.622Z,9.68
2023-03-29T12:58:56.647Z,8.13
2023-03-29T13:01:37.311Z,11.27
2023-03-29T13:04:25.327Z,8.05
2023-03-29T13:07:06.061Z,9.70
2023-03-29T13:09:50.747Z,16.73
2023-03-29T13:12:57.686Z,13.20
2023-03-29T13:18:16.566Z,14.82
2023-03-29T13:21:21.597Z,16.60
2023-03-29T13:24:05.362Z,12.13
2023-03-29T13:26:59.919Z,13.48
2023-03-29T13:29:51.712Z,13.23
2023-03-29T13:32:27.054Z,7.13
2023-03-29T13:35:14.488Z,12.15
2023-03-29T13:37:53.190Z,10.02
2023-03-29T13:40:32.823Z,9.70
2023-03-29T13:43:55.206Z,6.60
2023-03-29T13:47:01.324Z,8.18
2023-03-29T13:49:32.419Z,7.30
2023-03-29T13:52:30.505Z,7.65
2023-03-29T13:55:06.164Z,9.02
2023-03-29T13:57:47.605Z,5.97
2023-03-29T14:00:35.866Z,7.15
2023-03-29T14:03:13.055Z,13.48
2023-03-29T14:05:48.022Z,14.73
2023-03-29T14:08:26.792Z,10.20
2023-03-29T14:10:54.558Z,10.40
2023-03-29T14:13:27.581Z,7.47
2023-03-29T14:16:04.458Z,14.13
2023-03-29T14:18:40.554Z,11.90
2023-03-29T14:21:22.207Z,6.75
2023-03-29T14:24:24.221Z,13.95
2023-03-29T14:27:12.686Z,10.07
2023-03-29T14:29:45.429Z,8.90
2023-03-29T14:32:19.056Z,7.40
2023-03-29T14:35:03.067Z,10.25
2023-03-29T14:37:43.694Z,12.93
2023-03-29T14:40:27.693Z,6.75
2023-03-29T14:43:01.260Z,10.38
2023-03-29T14:45:28.151Z,8.18
2023-03-29T14:48:02.086Z,12.73
2023-03-29T14:50:30.973Z,14.68
2023-03-29T14:53:03.995Z,8.43
2023-03-29T14:55:32.487Z,14.85
2023-03-29T14:58:04.424Z,10.02
2023-03-29T15:00:50.903Z,8.50
2023-03-29T15:03:28.476Z,10.80
2023-03-29T15:06:02.859Z,11.05
2023-03-29T15:08:38.412Z,12.48
2023-03-29T15:11:18.356Z,18.30
2023-03-29T15:13:47.265Z,10.73
2023-03-29T15:16:42.719Z,7.88
2023-03-29T15:19:22.272Z,8.60
2023-03-29T15:21:51.152Z,6.82
2023-03-29T15:25:16.373Z,7.00
2023-03-29T15:28:09.654Z,6.13
2023-03-29T15:31:37.050Z,9.43
2023-03-29T15:34:54.137Z,3.83
2023-03-29T15:38:00.114Z,3.45
2023-03-29T15:40:54.659Z,18.50
2023-03-29T15:43:27.573Z,6.82
2023-03-29T15:45:57.913Z,7.38
2023-03-29T15:48:44.321Z,10.02
2023-03-29T15:51:26.803Z,9.52
2023-03-29T15:53:56.852Z,10.27
2023-03-29T15:56:47.980Z,7.90
2023-03-29T16:00:08.797Z,9.10
2023-03-29T16:03:09.644Z,9.18
2023-03-29T16:05:44.179Z,6.57
2023-03-29T16:08:24.251Z,6.07
2023-03-29T16:11:02.085Z,9.02
2023-03-29T16:13:31.378Z,6.43
2023-03-29T16:17:06.667Z,11.73
2023-03-29T16:19:45.555Z,13.80
2023-03-29T16:22:27.587Z,8.02
2023-03-29T16:25:40.653Z,10.13
2023-03-29T16:28:57.511Z,9.48
2023-03-29T16:31:47.661Z,8.40
2023-03-29T16:34:27.203Z,7.60
2023-03-29T16:36:56.273Z,8.38
2023-03-29T16:39:26.958Z,8.98
2023-03-29T16:41:54.201Z,7.40
2023-03-29T16:44:25.741Z,11.43
2023-03-29T16:46:58.181Z,6.40
2023-03-29T16:49:30.045Z,10.68
2023-03-29T16:52:02.606Z,11.15
2023-03-29T16:54:34.167Z,12.90
2023-03-29T16:57:07.436Z,10.80
2023-03-29T16:59:38.256Z,11.38
2023-03-29T17:02:10.559Z,7.78
2023-03-29T17:04:38.589Z,10.13
2023-03-29T17:07:05.597Z,14.00
2023-03-29T17:09:33.391Z,5.18
2023-03-29T17:12:03.484Z,8.30
2023-03-29T17:14:38.895Z,10.40
2023-03-29T17:17:07.296Z,8.32
2023-03-29T17:19:36.517Z,8.20
2023-03-29T17:22:03.409Z,10.45
2023-03-29T17:24:30.651Z,8.38
2023-03-29T17:34:30.215Z,12.63
2023-03-29T17:38:12.512Z,14.15
2023-03-29T17:41:17.563Z,20.23
2023-03-29T17:44:23.564Z,24.15
2023-03-29T17:47:55.176Z,21.15
2023-03-29T17:54:36.980Z,12.32
2023-03-29T18:00:01.835Z,11.65
2023-03-29T18:06:18.093Z,31.63
2023-03-29T18:12:20.172Z,12.73
2023-03-29T18:15:29.468Z,23.55
2023-03-29T18:18:02.212Z,49.30
2023-03-29T18:20:29.182Z,66.60
2023-03-29T18:22:59.442Z,16.13
2023-03-29T18:25:26.259Z,15.88
2023-03-29T18:27:53.054Z,10.52
2023-03-29T18:30:19.802Z,12.80
2023-03-29T18:32:46.620Z,12.98
2023-03-29T18:35:13.321Z,13.48
2023-03-29T18:37:40.009Z,18.55
2023-03-29T18:40:10.615Z,14.82
2023-03-29T18:42:37.572Z,7.35
2023-03-29T18:45:04.932Z,13.68
2023-03-29T18:47:32.200Z,11.70
2023-03-29T18:49:59.041Z,16.58
2023-03-29T18:52:25.753Z,14.23
2023-03-29T18:54:52.437Z,15.05
2023-03-29T18:57:19.299Z,16.55
2023-03-29T18:59:46.226Z,31.95
2023-03-29T19:02:13.035Z,38.17
2023-03-29T19:04:39.827Z,32.35
2023-03-29T19:07:06.750Z,29.73
2023-03-29T19:09:33.778Z,37.60
2023-03-29T19:12:01.108Z,30.10
2023-03-29T19:14:29.183Z,26.55
2023-03-29T19:16:55.880Z,28.08
2023-03-29T19:19:24.770Z,31.55
2023-03-29T19:21:52.769Z,27.70
2023-03-29T19:24:19.703Z,29.05
2023-03-29T19:26:47.944Z,32.72
2023-03-29T19:29:14.826Z,18.13
2023-03-29T19:31:41.916Z,20.42
2023-03-29T19:34:10.876Z,15.68
2023-03-29T19:36:38.089Z,13.45
2023-03-29T19:39:05.825Z,15.02
2023-03-29T19:41:32.722Z,17.60
2023-03-29T19:43:59.611Z,17.58
2023-03-29T19:46:28.027Z,18.30
2023-03-29T19:49:38.419Z,14.80
2023-03-29T19:52:39.055Z,12.45
2023-03-29T19:55:11.351Z,17.35
2023-03-29T19:57:48.400Z,20.58
2023-03-29T20:00:24.418Z,14.10
2023-03-29T20:03:23.189Z,16.30
2023-03-29T20:05:50.922Z,19.88
2023-03-29T20:08:17.740Z,16.85
2023-03-29T20:10:44.572Z,14.63
2023-03-29T20:13:11.558Z,14.57
2023-03-29T20:15:38.466Z,18.92
2023-03-29T20:18:05.948Z,16.38
2023-03-29T20:20:35.726Z,19.58
2023-03-29T20:23:05.263Z,21.13
2023-03-29T20:25:36.124Z,21.13
2023-03-29T20:28:04.697Z,15.65
2023-03-29T20:30:31.529Z,24.02
2023-03-29T20:32:58.367Z,33.55
2023-03-29T20:35:25.365Z,33.80
2023-03-29T20:37:52.236Z,24.95
2023-03-29T20:40:20.874Z,20.65
2023-03-29T20:42:56.725Z,23.25
2023-03-29T20:45:23.560Z,12.98
2023-03-29T20:47:57.437Z,19.73
2023-03-29T20:50:28.180Z,19.15
2023-03-29T20:52:57.289Z,17.17
2023-03-29T20:55:33.316Z,28.52
2023-03-29T20:58:05.366Z,28.70
2023-03-29T21:00:35.734Z,30.17
2023-03-29T21:03:03.851Z,31.17
2023-03-29T21:05:32.286Z,33.58
2023-03-29T21:07:59.315Z,26.92
2023-03-29T21:10:32.533Z,23.27
2023-03-29T21:13:09.404Z,25.33
2023-03-29T21:15:43.846Z,23.05
2023-03-29T21:20:40.175Z,16.88
2023-03-29T21:23:07.121Z,16.83
2023-03-29T21:25:34.010Z,16.50
2023-03-29T21:28:02.819Z,19.83
2023-03-29T21:30:34.505Z,22.05
2023-03-29T21:33:01.601Z,17.52
2023-03-29T21:35:33.949Z,18.65
2023-03-29T21:38:01.219Z,22.63
2023-03-29T21:40:30.180Z,15.23
2023-03-29T21:42:56.967Z,24.02
2023-03-29T21:45:27.029Z,21.10
2023-03-29T21:47:53.960Z,22.60
2023-03-29T21:50:21.740Z,17.98
2023-03-29T21:52:48.888Z,17.30
2023-03-29T21:55:15.708Z,14.80
2023-03-29T21:57:42.602Z,22.15
2023-03-29T22:00:11.300Z,20.60
2023-03-29T22:02:42.544Z,24.50
2023-03-29T22:05:16.714Z,20.27
2023-03-29T22:07:43.716Z,20.17
2023-03-29T22:10:13.057Z,29.70
2023-03-29T22:12:42.274Z,22.30
2023-03-29T22:15:16.507Z,32.63
2023-03-29T22:17:48.167Z,24.73
2023-03-29T22:20:18.525Z,27.55
2023-03-29T22:22:49.743Z,36.85
2023-03-29T22:25:17.901Z,30.08
2023-03-29T22:27:49.753Z,28.30
2023-03-29T22:30:22.552Z,33.75
2023-03-29T22:32:49.469Z,25.63
2023-03-29T22:35:19.341Z,22.70
2023-03-29T22:37:46.220Z,25.73
2023-03-29T22:40:13.532Z,28.25
2023-03-29T22:42:43.265Z,33.92
2023-03-29T22:45:19.545Z,24.45
2023-03-29T22:47:51.176Z,29.33
2023-03-29T22:50:33.629Z,24.50
2023-03-29T22:53:00.605Z,23.42
2023-03-29T22:55:30.590Z,31.85
2023-03-29T22:58:00.802Z,24.58
2023-03-29T23:00:31.228Z,24.77
2023-03-29T23:03:06.574Z,29.73
2023-03-29T23:05:33.871Z,27.25
2023-03-29T23:08:01.395Z,27.38
2023-03-29T23:10:38.400Z,26.80
2023-03-29T23:13:09.049Z,31.67
2023-03-29T23:15:37.454Z,24.77
2023-03-29T23:18:13.400Z,24.63
2023-03-29T23:20:40.708Z,31.05
2023-03-29T23:23:08.484Z,25.63
2023-03-29T23:25:39.895Z,26.13
2023-03-29T23:28:07.351Z,28.75
2023-03-29T23:30:40.234Z,26.15
2023-03-29T23:33:07.664Z,45.03
2023-03-29T23:35:35.959Z,27.02
2023-03-29T23:38:05.564Z,31.50
2023-03-29T23:40:33.240Z,29.02
2023-03-29T23:43:00.271Z,29.92
2023-03-29T23:45:30.139Z,26.13
2023-03-29T23:47:58.640Z,49.45
2023-03-29T23:50:28.609Z,27.65
2023-03-29T23:52:55.665Z,24.23
2023-03-29T23:55:27.938Z,28.65
2023-03-29T23:57:57.728Z,27.45
